Terminal Aerodrome Forecast
Issued by NWS

Home | Current Version | Previous Version | Text Only | Print | Product List | Glossary On
Versions: 1 2 3 4 5 6 7 8 9 10 11 12 13 14 15 16 17 18 19 20 21 22 23 24 25 26 27 28 29 30 31 32 33 34 35 36 37 38 39 40 41 42 43 44 45 46 47 48 49 50
000
FTUS44 KHGX 192042 AAB
TAFIAH
TAF AMD
KIAH 192042Z 1921/2024 13014KT P6SM SCT020 SCT027 BKN250
      TEMPO 2000/2003 BKN016 OVC025
     FM200300 14012KT P6SM OVC015
     FM200900 16007KT 6SM -RA BR OVC008
     FM201200 14007KT 6SM -SHRA BR SCT007 BKN013
     FM201500 VRB10KT 4SM TSRA BKN015CB OVC025=

USA.gov is the U.S. government's official web portal to all federal, state and local government web resources and services.